Time;durP1;ratioP1;P1;durP2;ratioP2;P2;SDS_P1;SDS_P2;PMS_P1;PMS_P2;Temp;Humidity;BMP_temperature;BMP_pressure;BME280_temperature;BME280_humidity;BME280_pressure;Samples;Min_cycle;Max_cycle;Signal;HPM_P1;HPM_P2
2021/04/09 00:02:11;;;;;;;8.23;4.93;;;-1.90;94.50;;;;;;4997279;28;20168;-82
2021/04/09 00:04:37;;;;;;;8.27;4.60;;;-1.90;94.30;;;;;;4996054;28;20023;-82
2021/04/09 00:07:04;;;;;;;10.05;5.05;;;-1.90;94.40;;;;;;4995627;28;20021;-82
2021/04/09 00:09:29;;;;;;;13.35;7.07;;;-2.00;94.40;;;;;;4996321;28;20146;-83
2021/04/09 00:11:55;;;;;;;9.10;5.13;;;-2.00;94.60;;;;;;4996005;28;20022;-82
2021/04/09 00:14:21;;;;;;;10.98;5.38;;;-1.90;94.50;;;;;;4996089;28;20026;-82
2021/04/09 00:16:47;;;;;;;9.90;5.30;;;-1.90;94.30;;;;;;4995588;28;20027;-82
2021/04/09 00:19:15;;;;;;;8.18;4.90;;;-1.90;94.10;;;;;;4995954;28;20056;-83
2021/04/09 00:21:42;;;;;;;11.02;4.70;;;-1.90;93.90;;;;;;4995718;28;20116;-82
2021/04/09 00:24:08;;;;;;;11.60;4.88;;;-1.90;94.20;;;;;;4996127;28;20027;-82
2021/04/09 00:26:34;;;;;;;12.60;5.15;;;-1.80;94.20;;;;;;4995833;28;20045;-83
2021/04/09 00:29:00;;;;;;;8.90;4.88;;;-1.90;94.30;;;;;;4995480;28;20038;-83
2021/04/09 00:31:26;;;;;;;12.35;5.78;;;-1.90;94.30;;;;;;4995926;28;20027;-83
2021/04/09 00:33:52;;;;;;;9.75;5.20;;;-1.90;94.40;;;;;;4996108;28;20030;-83
2021/04/09 00:36:18;;;;;;;7.90;4.55;;;-2.00;94.40;;;;;;4996247;28;20077;-83
2021/04/09 00:38:45;;;;;;;9.38;5.57;;;-2.00;94.30;;;;;;4997397;28;20081;-83
2021/04/09 00:41:12;;;;;;;8.52;4.53;;;-1.90;94.40;;;;;;4996412;28;20030;-84
2021/04/09 00:43:37;;;;;;;9.23;4.80;;;-2.00;94.50;;;;;;4996169;28;20374;-83
2021/04/09 00:46:03;;;;;;;9.40;4.70;;;-2.10;94.80;;;;;;4995310;28;20046;-83
2021/04/09 00:48:29;;;;;;;9.30;4.43;;;-1.90;95.20;;;;;;4995427;28;20022;-83
2021/04/09 00:50:54;;;;;;;8.25;4.50;;;-2.30;95.40;;;;;;4995954;28;20109;-83
2021/04/09 00:53:20;;;;;;;9.20;4.82;;;-2.30;95.60;;;;;;4995264;28;20022;-84
2021/04/09 00:55:47;;;;;;;9.32;4.80;;;-2.40;95.70;;;;;;4996763;28;20034;-83
2021/04/09 00:58:13;;;;;;;8.52;5.05;;;-2.40;96.00;;;;;;4994983;28;20034;-81
2021/04/09 01:00:39;;;;;;;10.75;4.63;;;-2.50;96.10;;;;;;4995282;28;20066;-82
2021/04/09 01:03:05;;;;;;;8.57;4.78;;;-2.50;96.10;;;;;;4995256;28;20027;-83
2021/04/09 01:05:32;;;;;;;9.15;4.65;;;-2.50;96.10;;;;;;4995151;28;20053;-82
2021/04/09 01:08:02;;;;;;;11.10;4.60;;;-2.50;96.10;;;;;;4995076;28;20027;-82
2021/04/09 01:10:29;;;;;;;10.63;4.50;;;-2.50;96.00;;;;;;4994934;28;20018;-82
2021/04/09 01:12:54;;;;;;;6.75;4.35;;;-2.50;95.90;;;;;;4995235;28;20045;-82
2021/04/09 01:15:21;;;;;;;10.15;4.65;;;-2.40;95.80;;;;;;4994822;28;20042;-83
2021/04/09 01:17:59;;;;;;;8.25;4.15;;;-2.30;95.60;;;;;;4994984;28;20109;-82
2021/04/09 01:20:47;;;;;;;9.50;4.70;;;-2.30;95.50;;;;;;4995198;28;20041;-83
2021/04/09 01:23:34;;;;;;;8.60;4.22;;;-2.40;95.60;;;;;;4994954;28;20469;-82
2021/04/09 01:26:05;;;;;;;;;;;-2.40;95.90;;;;;;4995309;28;20030;-82
2021/04/09 01:28:53;;;;;;;8.48;4.70;;;-2.50;95.80;;;;;;4994722;28;20323;-84
2021/04/09 01:31:48;;;;;;;8.68;4.15;;;-2.50;96.10;;;;;;4995010;28;20030;-82
2021/04/09 01:34:15;;;;;;;8.57;5.03;;;-2.60;96.30;;;;;;4994400;28;20056;-82
2021/04/09 01:36:53;;;;;;;9.73;5.10;;;-2.70;96.50;;;;;;4994873;28;20037;-83
2021/04/09 01:39:33;;;;;;;7.57;4.15;;;-2.70;96.60;;;;;;4994878;28;20045;-81
2021/04/09 01:42:03;;;;;;;8.27;4.68;;;-2.70;96.60;;;;;;4994648;28;20018;-82
2021/04/09 01:44:31;;;;;;;9.13;4.90;;;-2.70;96.80;;;;;;4994189;28;20038;-82
2021/04/09 01:46:58;;;;;;;11.07;4.40;;;-2.70;96.90;;;;;;4978203;28;20045;-82
2021/04/09 01:49:27;;;;;;;9.48;3.90;;;-2.80;96.70;;;;;;4978173;28;20045;-83
2021/04/09 01:51:54;;;;;;;10.68;4.53;;;-2.80;96.80;;;;;;4977590;28;20073;-83
2021/04/09 01:54:22;;;;;;;7.93;4.18;;;-2.80;96.90;;;;;;4978007;28;20046;-82
2021/04/09 01:56:51;;;;;;;9.23;4.82;;;-2.80;97.00;;;;;;4977919;28;20037;-82
2021/04/09 01:59:20;;;;;;;7.00;3.83;;;-2.80;97.00;;;;;;4977792;28;20122;-82
2021/04/09 02:01:47;;;;;;;9.48;3.83;;;-2.90;97.10;;;;;;4978418;28;20033;-81
2021/04/09 02:04:16;;;;;;;7.88;3.85;;;-2.90;97.30;;;;;;4978016;28;20026;-83
2021/04/09 02:06:43;;;;;;;5.57;3.65;;;-3.00;97.40;;;;;;4977966;28;20613;-83
2021/04/09 02:09:11;;;;;;;8.48;3.65;;;-3.00;97.60;;;;;;4978097;28;20038;-81
2021/04/09 02:11:37;;;;;;;7.18;4.45;;;-3.00;97.60;;;;;;4977874;28;20022;-81
2021/04/09 02:14:04;;;;;;;6.93;4.00;;;-2.90;97.70;;;;;;4977966;28;20504;-82
2021/04/09 02:16:30;;;;;;;8.70;4.00;;;-3.00;97.60;;;;;;4978101;28;20014;-82
2021/04/09 02:18:58;;;;;;;6.65;4.18;;;-2.90;97.60;;;;;;4977836;28;20038;-83
2021/04/09 02:21:24;;;;;;;8.25;4.30;;;-3.00;97.60;;;;;;4977903;28;20023;-81
2021/04/09 02:23:50;;;;;;;8.32;4.65;;;-3.10;97.80;;;;;;4977481;28;20128;-82
2021/04/09 02:26:17;;;;;;;11.07;3.78;;;-3.10;97.90;;;;;;4977503;28;20134;-82
2021/04/09 02:28:42;;;;;;;7.93;4.88;;;-3.20;98.00;;;;;;4977654;28;20089;-81
2021/04/09 02:31:12;;;;;;;9.93;5.00;;;-3.20;98.10;;;;;;4977650;28;20022;-81
2021/04/09 02:33:40;;;;;;;8.75;4.15;;;-3.20;98.30;;;;;;4977516;28;20030;-81
2021/04/09 02:36:27;;;;;;;8.88;4.22;;;-3.20;98.20;;;;;;4978019;28;20031;-84
2021/04/09 02:38:57;;;;;;;8.43;4.28;;;-3.20;98.40;;;;;;4977202;28;20100;-81
2021/04/09 02:41:31;;;;;;;7.97;4.10;;;-3.20;98.60;;;;;;4977895;28;20025;-82
2021/04/09 02:43:57;;;;;;;9.60;4.43;;;-3.20;98.80;;;;;;4977702;28;20033;-81
2021/04/09 02:46:52;;;;;;;11.93;4.50;;;-3.20;98.70;;;;;;4992430;28;20050;-81
2021/04/09 02:49:41;;;;;;;8.00;4.05;;;-3.20;98.80;;;;;;4994074;28;20042;-81
2021/04/09 02:52:15;;;;;;;6.93;4.15;;;-3.20;98.50;;;;;;4993876;28;20029;-81
2021/04/09 02:54:47;;;;;;;9.15;3.90;;;-3.20;98.90;;;;;;4994012;28;20448;-83
2021/04/09 02:57:14;;;;;;;6.38;3.88;;;-3.20;98.90;;;;;;4993312;28;20053;-82
2021/04/09 02:59:40;;;;;;;8.52;4.60;;;-3.30;99.00;;;;;;4993571;28;20506;-81
2021/04/09 03:02:06;;;;;;;9.23;4.35;;;-3.30;98.90;;;;;;4993926;28;20029;-81
2021/04/09 03:04:34;;;;;;;6.35;4.70;;;-3.30;98.90;;;;;;4996052;28;20026;-81
2021/04/09 03:07:00;;;;;;;10.05;5.60;;;-3.30;98.80;;;;;;4997192;28;20133;-81
2021/04/09 03:09:25;;;;;;;11.98;5.70;;;-3.30;98.70;;;;;;4997189;28;20066;-80
2021/04/09 03:11:51;;;;;;;8.10;4.95;;;-3.40;98.70;;;;;;4997049;28;20363;-81
2021/04/09 03:14:18;;;;;;;10.50;6.05;;;-3.40;98.70;;;;;;4997343;28;20454;-81
2021/04/09 03:16:56;;;;;;;11.18;5.07;;;-3.50;98.80;;;;;;4996777;28;20118;-83
2021/04/09 03:19:22;;;;;;;8.20;4.60;;;-3.50;98.70;;;;;;4997003;28;20034;-81
2021/04/09 03:21:47;;;;;;;8.52;4.68;;;-3.40;98.70;;;;;;4997765;28;20048;-81
2021/04/09 03:24:13;;;;;;;6.03;4.00;;;-3.50;98.70;;;;;;4995883;28;20532;-81
2021/04/09 03:26:39;;;;;;;7.45;4.40;;;-3.60;98.80;;;;;;4995699;28;20046;-81
2021/04/09 03:29:04;;;;;;;7.18;4.20;;;-3.50;99.00;;;;;;4995890;28;20057;-84
2021/04/09 03:31:30;;;;;;;8.38;4.68;;;-3.40;98.90;;;;;;4995627;28;20014;-82
2021/04/09 03:33:56;;;;;;;8.13;5.18;;;-3.40;98.80;;;;;;4995469;28;20503;-83
2021/04/09 03:36:21;;;;;;;7.63;5.25;;;-3.50;98.90;;;;;;4995645;28;20026;-82
2021/04/09 03:38:47;;;;;;;10.30;5.85;;;-3.50;98.70;;;;;;4995320;28;20038;-83
2021/04/09 03:41:13;;;;;;;13.05;5.13;;;-3.50;98.90;;;;;;4997071;28;20493;-81
2021/04/09 03:43:38;;;;;;;10.73;4.95;;;-3.60;99.10;;;;;;4995678;28;20061;-82
2021/04/09 03:46:04;;;;;;;10.55;4.75;;;-3.60;99.10;;;;;;4996327;28;20038;-82
2021/04/09 03:48:30;;;;;;;10.63;4.90;;;-3.70;99.10;;;;;;4996765;28;20461;-81
2021/04/09 03:50:55;;;;;;;9.02;5.07;;;-3.80;99.20;;;;;;4997348;28;20478;-79
2021/04/09 03:53:21;;;;;;;10.60;5.93;;;-2.30;99.90;;;;;;4996822;28;20026;-79
2021/04/09 03:55:47;;;;;;;14.52;7.50;;;-2.60;97.80;;;;;;4999278;28;20077;-80
2021/04/09 03:58:12;;;;;;;20.05;11.40;;;-2.80;97.50;;;;;;4979549;28;20167;-81
2021/04/09 04:00:38;;;;;;;14.50;9.25;;;-3.10;98.10;;;;;;4996464;28;20030;-81
2021/04/09 04:03:04;;;;;;;9.68;6.72;;;-3.40;98.90;;;;;;4996282;28;20053;-81
2021/04/09 04:05:30;;;;;;;9.48;5.60;;;-3.40;99.30;;;;;;4996167;28;20390;-83
2021/04/09 04:07:56;;;;;;;11.20;5.82;;;-3.50;99.50;;;;;;4996052;28;20030;-81
2021/04/09 04:10:22;;;;;;;8.70;5.30;;;-3.60;99.70;;;;;;4980049;28;20033;-80
2021/04/09 04:12:47;;;;;;;13.90;8.10;;;-3.60;99.60;;;;;;4996312;28;20042;-81
2021/04/09 04:15:15;;;;;;;11.75;6.80;;;-3.60;99.60;;;;;;5000291;28;20110;-81
2021/04/09 04:17:40;;;;;;;9.35;6.00;;;-3.70;99.80;;;;;;4996689;28;20069;-81
2021/04/09 04:20:07;;;;;;;11.20;6.95;;;-3.60;99.80;;;;;;4996870;28;20038;-83
2021/04/09 04:22:32;;;;;;;12.60;8.52;;;-3.70;99.90;;;;;;4996166;28;20033;-81
2021/04/09 04:24:58;;;;;;;13.57;9.43;;;-3.70;99.90;;;;;;4996060;28;20031;-81
2021/04/09 04:27:24;;;;;;;13.00;8.77;;;-3.70;99.90;;;;;;4995895;28;20106;-82
2021/04/09 04:29:50;;;;;;;11.50;7.00;;;-3.80;99.90;;;;;;4995595;28;20133;-82
2021/04/09 04:32:15;;;;;;;10.90;7.68;;;-3.80;99.90;;;;;;4996388;28;20433;-83
2021/04/09 04:34:41;;;;;;;11.27;7.32;;;-3.80;99.90;;;;;;4995697;28;20046;-81
2021/04/09 04:37:07;;;;;;;14.25;8.35;;;-3.70;99.90;;;;;;4995391;28;20030;-82
2021/04/09 04:39:32;;;;;;;11.52;7.00;;;-3.60;99.90;;;;;;4979670;28;20042;-82
2021/04/09 04:41:58;;;;;;;12.00;8.30;;;-3.60;99.80;;;;;;4996095;28;20038;-86
2021/04/09 04:44:24;;;;;;;19.40;14.32;;;-3.60;99.80;;;;;;4995559;28;20084;-83
2021/04/09 04:46:51;;;;;;;19.35;11.30;;;-3.70;99.90;;;;;;4963555;28;20049;-81
2021/04/09 04:49:16;;;;;;;12.52;7.78;;;-3.70;99.90;;;;;;4980535;28;20034;-82
2021/04/09 04:51:43;;;;;;;10.20;6.22;;;-3.60;99.90;;;;;;4980053;28;20030;-82
2021/04/09 04:54:09;;;;;;;10.20;6.75;;;-3.60;99.80;;;;;;4980069;28;20039;-83
2021/04/09 04:56:35;;;;;;;12.27;5.22;;;-2.10;99.90;;;;;;4997309;28;20018;-83
2021/04/09 04:59:00;;;;;;;11.73;5.20;;;-1.60;95.80;;;;;;4979547;28;20061;-83
2021/04/09 05:01:26;;;;;;;9.73;5.40;;;-2.00;95.30;;;;;;4979689;28;20023;-83
2021/04/09 05:03:51;;;;;;;9.90;5.35;;;-2.50;96.70;;;;;;4979433;28;20034;-83
2021/04/09 05:06:17;;;;;;;8.27;4.55;;;-2.80;97.50;;;;;;4979723;28;20030;-83
2021/04/09 05:08:43;;;;;;;7.13;4.60;;;-3.00;98.30;;;;;;4979692;28;20168;-84
2021/04/09 05:11:10;;;;;;;9.77;5.80;;;-3.10;99.00;;;;;;4979369;28;20030;-83
2021/04/09 05:13:37;;;;;;;11.45;6.35;;;-3.10;99.30;;;;;;4979402;28;20038;-84
2021/04/09 05:16:03;;;;;;;16.90;7.70;;;-3.10;99.50;;;;;;4979525;28;20057;-84
2021/04/09 05:18:28;;;;;;;9.70;5.32;;;-2.10;99.90;;;;;;4978511;28;20034;-83
2021/04/09 05:20:54;;;;;;;10.57;7.07;;;-1.00;97.30;;;;;;4978329;28;20363;-79
2021/04/09 05:23:20;;;;;;;16.42;7.22;;;-1.30;95.00;;;;;;4977723;28;20080;-79
2021/04/09 05:25:45;;;;;;;18.05;8.27;;;-1.60;95.90;;;;;;4978848;28;20022;-80
2021/04/09 05:28:11;;;;;;;13.45;6.03;;;-1.80;96.20;;;;;;4977162;28;20022;-85
2021/04/09 05:30:37;;;;;;;16.83;5.55;;;-2.10;97.00;;;;;;4979723;28;20129;-83
2021/04/09 05:33:02;;;;;;;11.90;5.80;;;-1.80;97.50;;;;;;4980415;28;20457;-84
2021/04/09 05:35:28;;;;;;;8.85;5.20;;;-2.30;97.40;;;;;;4979329;28;20061;-83
2021/04/09 05:37:54;;;;;;;12.73;5.30;;;-2.30;97.60;;;;;;4978443;28;20065;-81
2021/04/09 05:40:20;;;;;;;7.78;4.68;;;-2.30;98.00;;;;;;4978420;28;20085;-81
2021/04/09 05:42:54;;;;;;;8.43;5.13;;;-2.30;97.90;;;;;;4978183;28;20069;-84
2021/04/09 05:45:20;;;;;;;9.10;5.40;;;-2.20;97.50;;;;;;4984856;28;20054;-82
2021/04/09 05:47:47;;;;;;;9.35;5.90;;;-2.10;97.20;;;;;;4994772;28;20351;-83
2021/04/09 05:50:13;;;;;;;11.88;5.75;;;-2.00;97.20;;;;;;4994707;28;20037;-84
2021/04/09 05:52:39;;;;;;;10.63;5.18;;;-1.80;96.80;;;;;;4995600;28;20030;-85
2021/04/09 05:55:05;;;;;;;9.52;5.32;;;-1.60;96.40;;;;;;4995341;28;20106;-83
2021/04/09 05:57:30;;;;;;;10.43;6.35;;;-1.50;96.30;;;;;;4997842;28;20026;-83
2021/04/09 05:59:56;;;;;;;13.52;6.45;;;-1.40;96.30;;;;;;4998267;28;20034;-83
2021/04/09 06:02:22;;;;;;;18.67;7.30;;;-1.10;95.80;;;;;;4996019;28;20062;-83
2021/04/09 06:04:47;;;;;;;14.13;6.88;;;-0.50;95.60;;;;;;4995402;28;20030;-83
2021/04/09 06:07:13;;;;;;;13.45;5.45;;;-1.10;95.60;;;;;;4995264;28;20030;-83
2021/04/09 06:09:39;;;;;;;11.93;5.78;;;-1.00;95.20;;;;;;4995343;28;20076;-84
2021/04/09 06:12:05;;;;;;;10.10;6.20;;;-0.90;95.20;;;;;;4995397;28;20448;-84
2021/04/09 06:14:30;;;;;;;11.48;6.85;;;-0.70;94.80;;;;;;4995361;28;20573;-84
2021/04/09 06:16:56;;;;;;;18.77;9.10;;;-0.60;94.50;;;;;;4995024;28;20074;-84
2021/04/09 06:19:22;;;;;;;13.70;7.75;;;-0.50;94.10;;;;;;4995024;28;20041;-83
2021/04/09 06:21:47;;;;;;;11.30;6.40;;;-0.40;93.90;;;;;;4995744;28;20149;-81
2021/04/09 06:24:13;;;;;;;15.43;5.68;;;-0.30;93.30;;;;;;4995578;28;20030;-83
2021/04/09 06:26:39;;;;;;;13.55;4.97;;;-0.10;93.00;;;;;;4995936;28;20030;-83
2021/04/09 06:29:04;;;;;;;8.85;5.20;;;0.10;92.80;;;;;;4996052;28;20030;-86
2021/04/09 06:31:30;;;;;;;7.95;4.97;;;0.30;92.50;;;;;;4996659;28;20037;-83
2021/04/09 06:33:56;;;;;;;8.98;4.70;;;0.40;91.30;;;;;;4996670;28;20038;-85
2021/04/09 06:36:22;;;;;;;11.45;4.93;;;0.80;90.40;;;;;;4995934;28;20031;-85
2021/04/09 06:38:48;;;;;;;8.18;4.50;;;1.10;88.20;;;;;;4998586;28;20042;-82
2021/04/09 06:41:14;;;;;;;9.18;4.32;;;1.00;86.10;;;;;;5000862;28;20532;-84
2021/04/09 06:43:40;;;;;;;10.00;5.55;;;1.10;85.10;;;;;;4998648;28;20034;-86
2021/04/09 06:46:06;;;;;;;13.68;6.03;;;1.30;83.80;;;;;;4999427;28;20051;-86
2021/04/09 06:48:33;;;;;;;8.85;4.93;;;1.40;82.30;;;;;;4998653;28;20081;-86
2021/04/09 06:51:00;;;;;;;10.80;5.70;;;1.70;81.20;;;;;;4995910;28;20022;-81
2021/04/09 06:53:27;;;;;;;10.30;5.32;;;1.90;79.60;;;;;;4982822;28;20485;-83
2021/04/09 06:55:53;;;;;;;11.82;4.53;;;2.10;78.30;;;;;;4978612;28;20023;-85
2021/04/09 06:58:20;;;;;;;6.85;4.20;;;2.30;76.70;;;;;;4985549;28;20056;-84
2021/04/09 07:00:50;;;;;;;8.02;3.50;;;2.70;68.30;;;;;;4999116;28;20094;-86
2021/04/09 07:03:19;;;;;;;7.85;3.97;;;3.20;60.80;;;;;;4998078;28;20054;-81
2021/04/09 07:05:45;;;;;;;6.93;4.40;;;3.40;64.10;;;;;;4977187;28;20027;-80
2021/04/09 07:08:11;;;;;;;10.73;5.47;;;3.70;63.90;;;;;;4978730;28;20371;-83
2021/04/09 07:10:36;;;;;;;7.72;6.10;;;3.90;62.20;;;;;;4993611;28;20026;-81
2021/04/09 07:13:04;;;;;;;6.32;3.67;;;4.10;60.10;;;;;;4996272;28;20026;-82
2021/04/09 07:15:40;;;;;;;6.90;4.35;;;4.30;56.80;;;;;;4986002;28;20488;-80
2021/04/09 07:18:07;;;;;;;7.85;4.18;;;4.50;56.00;;;;;;4989422;28;20061;-82
2021/04/09 07:20:34;;;;;;;6.63;3.70;;;4.80;55.20;;;;;;4994126;28;20124;-80
2021/04/09 07:23:01;;;;;;;9.60;4.03;;;4.90;55.10;;;;;;4994400;28;20031;-80
2021/04/09 07:25:39;;;;;;;6.22;3.75;;;5.00;53.40;;;;;;4984046;28;20359;-80
2021/04/09 07:28:24;;;;;;;11.85;4.10;;;5.20;52.80;;;;;;4975775;28;20054;-79
2021/04/09 07:30:53;;;;;;;8.10;4.43;;;5.30;52.80;;;;;;4974403;28;20057;-78
2021/04/09 07:33:23;;;;;;;8.63;4.35;;;5.40;52.20;;;;;;4974430;28;20027;-78
2021/04/09 07:35:50;;;;;;;6.85;4.35;;;5.60;53.00;;;;;;4974575;28;20105;-80
2021/04/09 07:38:20;;;;;;;6.57;4.28;;;5.80;52.20;;;;;;4974210;28;20035;-80
2021/04/09 07:40:55;;;;;;;9.95;5.43;;;5.90;49.90;;;;;;4974472;28;20022;-78
2021/04/09 07:43:20;;;;;;;9.07;5.38;;;6.00;51.20;;;;;;4974547;28;20085;-79
2021/04/09 07:45:46;;;;;;;8.70;4.60;;;6.20;51.40;;;;;;4974161;28;20051;-79
2021/04/09 07:48:16;;;;;;;6.00;4.43;;;6.30;49.50;;;;;;4974459;28;20031;-82
2021/04/09 07:50:45;;;;;;;8.43;4.40;;;6.40;48.90;;;;;;4973964;28;20035;-79
2021/04/09 07:53:16;;;;;;;5.95;3.97;;;6.50;49.40;;;;;;4975629;28;20026;-78
2021/04/09 07:55:42;;;;;;;12.18;9.27;;;6.60;48.70;;;;;;4975585;28;20077;-82
2021/04/09 07:58:24;;;;;;;9.15;4.45;;;6.70;48.90;;;;;;4973677;28;20031;-80
2021/04/09 08:00:51;;;;;;;6.78;3.72;;;6.90;48.60;;;;;;4974232;28;20093;-78
2021/04/09 08:03:36;;;;;;;8.32;5.38;;;7.00;47.40;;;;;;4974169;28;20035;-80
2021/04/09 08:06:10;;;;;;;8.93;4.22;;;7.20;48.60;;;;;;4973953;28;20090;-79
2021/04/09 08:08:37;;;;;;;8.27;5.00;;;7.40;46.60;;;;;;4973734;28;20031;-79
2021/04/09 08:11:23;;;;;;;15.55;6.53;;;7.50;46.40;;;;;;4974225;28;20123;-80
2021/04/09 08:14:09;;;;;;;9.57;7.15;;;7.60;47.10;;;;;;4973988;28;20030;-81
2021/04/09 08:16:36;;;;;;;6.88;4.53;;;7.80;46.70;;;;;;4975188;28;20546;-78
2021/04/09 08:19:24;;;;;;;15.18;7.30;;;7.90;45.80;;;;;;4973664;28;20129;-81
2021/04/09 08:21:55;;;;;;;10.45;6.82;;;7.90;46.40;;;;;;4973711;28;20034;-82
2021/04/09 08:24:28;;;;;;;19.90;13.05;;;8.10;46.30;;;;;;4974044;28;20019;-80
2021/04/09 08:26:54;;;;;;;12.30;5.90;;;8.10;45.70;;;;;;4973852;28;20134;-83
2021/04/09 08:29:22;;;;;;;6.50;4.35;;;8.10;44.20;;;;;;4973713;28;20023;-78
2021/04/09 08:31:48;;;;;;;11.65;4.30;;;8.20;46.70;;;;;;4973711;28;20027;-81
2021/04/09 08:34:17;;;;;;;4.45;3.55;;;8.30;44.50;;;;;;4973666;28;20034;-81
2021/04/09 08:36:43;;;;;;;16.98;4.65;;;8.30;45.10;;;;;;4973213;28;20085;-82
2021/04/09 08:39:11;;;;;;;14.20;4.30;;;8.60;79.20;;;;;;4974499;28;20090;-79
2021/04/09 08:41:42;;;;;;;8.73;4.93;;;9.50;52.80;;;;;;4974019;28;20501;-82
2021/04/09 08:44:09;;;;;;;7.03;4.13;;;9.50;42.70;;;;;;4975089;28;20047;-81
2021/04/09 08:46:36;;;;;;;7.30;4.50;;;9.50;41.70;;;;;;4975314;28;20027;-82
2021/04/09 08:49:04;;;;;;;6.53;5.07;;;9.30;43.30;;;;;;4957792;28;20117;-81
2021/04/09 08:51:31;;;;;;;9.50;6.47;;;9.40;44.20;;;;;;4957895;28;20031;-83
2021/04/09 08:54:15;;;;;;;6.13;3.97;;;9.50;44.20;;;;;;4969689;28;20385;-80
2021/04/09 08:56:42;;;;;;;9.23;5.25;;;9.20;41.70;;;;;;4977437;28;20117;-82
2021/04/09 08:59:08;;;;;;;8.48;5.70;;;9.30;43.50;;;;;;4976988;28;20066;-82
2021/04/09 09:01:34;;;;;;;7.18;4.38;;;9.30;43.00;;;;;;4976127;28;20057;-81
2021/04/09 09:04:21;;;;;;;9.93;4.40;;;9.40;43.50;;;;;;4977094;28;20118;-82
2021/04/09 09:06:49;;;;;;;8.90;5.53;;;9.60;44.20;;;;;;4994360;28;20022;-83
2021/04/09 09:09:32;;;;;;;9.57;3.97;;;9.70;43.40;;;;;;4977126;28;20022;-83
2021/04/09 09:12:00;;;;;;;21.20;11.18;;;9.70;41.30;;;;;;4977074;28;20030;-82
2021/04/09 09:14:43;;;;;;;22.38;12.25;;;9.70;43.20;;;;;;4977005;28;20026;-85
2021/04/09 09:17:21;;;;;;;10.43;6.38;;;9.90;42.70;;;;;;4976365;28;20022;-80
2021/04/09 09:19:49;;;;;;;14.07;8.05;;;10.20;41.10;;;;;;4993835;28;20034;-79
2021/04/09 09:22:20;;;;;;;8.90;5.90;;;10.30;41.60;;;;;;4975895;28;20022;-79
2021/04/09 09:25:05;;;;;;;7.70;4.05;;;10.40;42.60;;;;;;4975705;28;20034;-78
2021/04/09 09:27:50;;;;;;;9.70;6.15;;;10.50;41.30;;;;;;4975647;28;20031;-80
2021/04/09 09:30:37;;;;;;;17.40;9.35;;;10.60;40.40;;;;;;4993092;28;20026;-79
2021/04/09 09:33:20;;;;;;;7.47;4.60;;;10.60;41.00;;;;;;4975181;28;20027;-78
2021/04/09 09:36:01;;;;;;;15.55;10.40;;;10.60;39.40;;;;;;4975332;28;20029;-82
2021/04/09 09:38:47;;;;;;;13.48;5.72;;;10.70;40.60;;;;;;4975048;28;20092;-78
2021/04/09 09:41:35;;;;;;;13.38;8.80;;;10.80;44.30;;;;;;4974960;28;20030;-79
2021/04/09 09:44:01;;;;;;;12.63;7.25;;;11.00;41.80;;;;;;4975309;28;20026;-80
2021/04/09 09:46:58;;;;;;;7.88;5.10;;;11.10;40.50;;;;;;4988416;28;20116;-79
2021/04/09 09:49:26;;;;;;;11.15;6.45;;;11.00;39.40;;;;;;4911946;28;20075;-78
2021/04/09 09:51:52;;;;;;;17.98;11.05;;;11.00;39.50;;;;;;4985365;28;20581;-80
2021/04/09 09:54:26;;;;;;;9.68;4.55;;;10.80;39.50;;;;;;4990753;28;20057;-79
2021/04/09 09:56:53;;;;;;;12.93;6.45;;;10.80;38.20;;;;;;4991718;28;20034;-81
2021/04/09 09:59:21;;;;;;;10.10;6.15;;;10.80;39.90;;;;;;5009770;28;20495;-78
2021/04/09 10:01:59;;;;;;;10.02;6.82;;;10.90;40.30;;;;;;4994183;28;20026;-78
2021/04/09 10:04:25;;;;;;;8.15;5.70;;;11.00;38.50;;;;;;4971916;28;20122;-79
2021/04/09 10:06:53;;;;;;;8.40;5.15;;;11.00;40.00;;;;;;4971675;28;20035;-79
2021/04/09 10:09:30;;;;;;;15.68;7.03;;;11.10;38.80;;;;;;4980946;28;20031;-80
2021/04/09 10:11:57;;;;;;;13.95;8.07;;;11.10;39.70;;;;;;4995721;28;20376;-82
2021/04/09 10:14:27;;;;;;;7.63;4.20;;;11.20;40.70;;;;;;4979044;28;20504;-82
2021/04/09 10:16:53;;;;;;;9.13;6.75;;;11.30;37.40;;;;;;4972070;28;20529;-82
2021/04/09 10:19:19;;;;;;;6.82;4.80;;;11.30;39.10;;;;;;4972406;28;20050;-81
2021/04/09 10:21:45;;;;;;;10.32;7.20;;;11.50;38.20;;;;;;4988161;28;20535;-78
2021/04/09 10:24:18;;;;;;;8.95;4.43;;;11.50;39.00;;;;;;4992539;28;20058;-79
2021/04/09 10:26:54;;;;;;;10.27;5.95;;;11.40;39.00;;;;;;4990954;28;20093;-78
2021/04/09 10:29:27;;;;;;;6.30;4.55;;;11.50;39.10;;;;;;4991324;28;20038;-81
2021/04/09 10:31:54;;;;;;;6.07;4.75;;;11.60;37.10;;;;;;4991311;28;20122;-78
2021/04/09 10:34:22;;;;;;;10.45;7.20;;;11.50;36.60;;;;;;4992846;28;20428;-77
2021/04/09 10:36:48;;;;;;;11.05;7.50;;;11.60;39.60;;;;;;4990326;28;20014;-79
2021/04/09 10:39:17;;;;;;;12.02;8.50;;;11.70;40.00;;;;;;4991235;28;20049;-79
2021/04/09 10:41:46;;;;;;;7.03;5.40;;;11.90;40.00;;;;;;4991659;28;20022;-81
2021/04/09 10:44:31;;;;;;;14.48;7.25;;;12.10;37.00;;;;;;4992325;28;20037;-79
2021/04/09 10:47:02;;;;;;;7.40;5.85;;;11.90;38.00;;;;;;4974296;28;20186;-82
2021/04/09 10:49:30;;;;;;;20.30;10.52;;;12.10;38.00;;;;;;4974891;28;20386;-81
2021/04/09 10:51:58;;;;;;;14.15;7.70;;;12.30;39.90;;;;;;4992112;28;20049;-81
2021/04/09 10:54:29;;;;;;;8.10;5.75;;;12.40;39.40;;;;;;4973997;28;20022;-79
2021/04/09 10:57:00;;;;;;;8.82;6.30;;;12.60;38.40;;;;;;4974259;28;20741;-79
2021/04/09 10:59:38;;;;;;;12.35;5.70;;;12.70;37.10;;;;;;4991968;28;20163;-80
2021/04/09 11:02:06;;;;;;;19.70;12.90;;;12.80;37.00;;;;;;4974298;28;20513;-79
2021/04/09 11:04:33;;;;;;;12.57;7.75;;;12.80;36.50;;;;;;4991176;28;20068;-78
2021/04/09 11:07:01;;;;;;;18.95;12.13;;;12.80;36.90;;;;;;4973848;28;20026;-79
2021/04/09 11:09:44;;;;;;;9.80;5.57;;;12.80;36.50;;;;;;4974228;28;20026;-81
2021/04/09 11:12:29;;;;;;;25.25;13.05;;;12.90;39.50;;;;;;4991848;28;20022;-80
2021/04/09 11:15:10;;;;;;;12.32;5.50;;;13.10;37.90;;;;;;4992121;28;20026;-80
2021/04/09 11:17:36;;;;;;;15.43;8.35;;;13.10;37.50;;;;;;4974709;28;20023;-78
2021/04/09 11:20:25;;;;;;;8.27;5.45;;;13.30;41.70;;;;;;4974000;28;20374;-79
2021/04/09 11:23:09;;;;;;;10.30;6.93;;;13.30;38.80;;;;;;4974482;28;20474;-85
2021/04/09 11:25:39;;;;;;;10.77;7.32;;;13.60;39.60;;;;;;4976313;28;20056;-81
2021/04/09 11:28:06;;;;;;;12.15;7.35;;;13.80;37.20;;;;;;4977828;28;20022;-79
2021/04/09 11:30:35;;;;;;;16.30;7.55;;;13.70;35.70;;;;;;4977754;28;20022;-79
2021/04/09 11:33:01;;;;;;;7.65;5.65;;;13.50;37.30;;;;;;4977888;28;20429;-82
2021/04/09 11:35:36;;;;;;;16.92;9.88;;;13.60;36.20;;;;;;4977850;28;20062;-80
2021/04/09 11:38:12;;;;;;;9.32;5.95;;;13.50;35.00;;;;;;4995141;28;20023;-82
2021/04/09 11:40:43;;;;;;;6.43;4.90;;;13.20;35.10;;;;;;4977479;28;20039;-80
2021/04/09 11:43:10;;;;;;;11.05;6.68;;;13.20;37.30;;;;;;4977422;28;20022;-79
2021/04/09 11:45:48;;;;;;;8.13;5.80;;;13.40;37.50;;;;;;4986201;28;20050;-80
2021/04/09 11:48:23;;;;;;;9.35;6.70;;;13.50;36.90;;;;;;4993959;28;20493;-80
2021/04/09 11:50:49;;;;;;;8.77;5.47;;;13.50;37.40;;;;;;4993859;28;20022;-80
2021/04/09 11:53:15;;;;;;;7.28;5.97;;;13.40;36.60;;;;;;4994022;28;20030;-80
2021/04/09 11:55:41;;;;;;;8.48;5.88;;;13.40;35.90;;;;;;4993660;28;20097;-80
2021/04/09 11:58:23;;;;;;;9.30;5.72;;;13.50;34.50;;;;;;4993479;28;20026;-79
2021/04/09 12:01:00;;;;;;;14.52;8.23;;;13.30;35.40;;;;;;4993502;28;20022;-80
2021/04/09 12:03:43;;;;;;;7.53;5.60;;;13.40;37.50;;;;;;4993619;28;20567;-79
2021/04/09 12:06:14;;;;;;;10.50;5.97;;;13.50;35.40;;;;;;4979130;28;20392;-80
2021/04/09 12:08:40;;;;;;;16.48;9.10;;;13.50;35.50;;;;;;4975444;28;20062;-79
2021/04/09 12:11:08;;;;;;;21.42;11.95;;;13.70;37.20;;;;;;4974386;28;20367;-82
2021/04/09 12:13:38;;;;;;;10.85;6.80;;;13.80;37.40;;;;;;4974002;28;20027;-82
2021/04/09 12:16:07;;;;;;;19.05;10.25;;;14.10;36.90;;;;;;4974370;28;20027;-80
2021/04/09 12:18:32;;;;;;;15.25;9.02;;;14.10;36.40;;;;;;4973785;28;20082;-80
2021/04/09 12:20:59;;;;;;;19.98;11.48;;;14.10;35.00;;;;;;4973993;28;20034;-81
2021/04/09 12:23:25;;;;;;;16.65;10.18;;;14.20;35.40;;;;;;4974060;28;20057;-82
2021/04/09 12:25:53;;;;;;;10.55;6.20;;;14.10;35.30;;;;;;4974064;28;20030;-82
2021/04/09 12:28:19;;;;;;;8.30;5.88;;;14.10;36.40;;;;;;4973912;28;20058;-81
2021/04/09 12:30:45;;;;;;;17.02;10.40;;;14.10;35.00;;;;;;4973777;28;20069;-81
2021/04/09 12:33:10;;;;;;;30.40;16.13;;;14.00;35.50;;;;;;4976770;28;20022;-79
2021/04/09 12:35:36;;;;;;;46.20;25.92;;;14.10;36.00;;;;;;4975139;28;20051;-83
2021/04/09 12:38:01;;;;;;;64.00;33.55;;;14.10;35.80;;;;;;4983520;28;20079;-81
2021/04/09 12:40:27;;;;;;;26.77;15.70;;;14.30;37.50;;;;;;4981880;28;20026;-80
2021/04/09 12:42:53;;;;;;;8.80;6.63;;;14.30;36.40;;;;;;4978811;28;20109;-80
2021/04/09 12:45:18;;;;;;;22.63;14.65;;;14.40;34.80;;;;;;4992079;28;20494;-81
2021/04/09 12:47:44;;;;;;;13.55;8.57;;;14.40;36.50;;;;;;4992939;28;20034;-79
2021/04/09 12:50:11;;;;;;;15.40;7.97;;;14.40;36.10;;;;;;4992797;28;20022;-79
2021/04/09 12:52:36;;;;;;;9.43;6.45;;;14.50;35.80;;;;;;4992842;28;20136;-86
2021/04/09 12:55:02;;;;;;;8.73;5.95;;;14.60;34.80;;;;;;4993272;28;20062;-83